Terminal Aerodrome Forecast
Issued by NWS

Current Version | Previous Version | Text Only | Print | Product List | Glossary Off
Versions: 1 2 3 4 5 6 7 8 9 10 11 12 13 14 15 16 17

000
FTUS41 KPBZ 231120
TAFHLG
TAF
KHLG 231120Z 2312/2412 26010KT P6SM BKN070
     FM231400 29015G25KT P6SM BKN035
     FM240000 30008KT P6SM BKN050=

USA.gov is the U.S. government's official web portal to all federal, state and local government web resources and services.